Terminal Aerodrome Forecast
Issued by NWS

Current Version | Previous Version | Text Only | Print | Product List | Glossary On
Versions: 1 2 3 4 5 6 7 8 9 10 11 12 13 14 15 16 17 18 19 20 21 22 23 24 25
000
FTUS45 KGJT 212339
TAFTEX
TAF
KTEX 212339Z 2200/2224 20007KT P6SM VCTS SCT060CB BKN100
     FM220100 21008KT P6SM VCTS SCT030CB BKN060
     FM220600 16005KT 3SM SHRA BR VCTS SCT030 BKN050CB
     FM221200 14005KT P6SM BKN100
     FM221900 25009KT P6SM SCT080 SCT150
      AMD NOT SKED=

USA.gov is the U.S. government's official web portal to all federal, state and local government web resources and services.